createdAt,value
2023-04-16T16:31:47.925Z,56.70
2023-04-16T16:34:20.742Z,58.10
2023-04-16T16:36:50.278Z,47.80
2023-04-16T16:39:22.745Z,39.00
2023-04-16T16:41:55.024Z,35.90
2023-04-16T16:44:24.135Z,36.00
2023-04-16T16:46:54.240Z,37.50
2023-04-16T16:49:23.132Z,35.80
2023-04-16T16:51:52.143Z,34.60
2023-04-16T16:54:21.134Z,29.20
2023-04-16T16:56:50.167Z,27.90
2023-04-16T16:59:19.103Z,25.10
2023-04-16T17:01:47.994Z,25.80
2023-04-16T17:04:20.020Z,25.10
2023-04-16T17:06:49.621Z,24.40
2023-04-16T17:09:19.686Z,20.80
2023-04-16T17:11:48.790Z,20.90
2023-04-16T17:14:17.885Z,23.10
2023-04-16T17:16:47.492Z,21.60
2023-04-16T17:19:18.126Z,23.10
2023-04-16T17:21:47.026Z,20.30
2023-04-16T17:24:16.213Z,18.10
2023-04-16T17:26:45.112Z,19.20
2023-04-16T17:29:14.104Z,16.50
2023-04-16T17:31:43.578Z,17.20
2023-04-16T17:34:12.805Z,17.60
2023-04-16T17:36:42.627Z,17.60
2023-04-16T17:39:11.815Z,17.00
2023-04-16T17:41:40.831Z,21.80
2023-04-16T17:44:11.827Z,21.70
2023-04-16T17:46:40.955Z,30.30
2023-04-16T17:49:10.031Z,17.50
2023-04-16T17:51:39.136Z,19.30
2023-04-16T17:54:08.120Z,23.00
2023-04-16T17:56:37.141Z,23.30
2023-04-16T18:00:51.287Z,20.20
2023-04-16T18:03:21.969Z,20.30
2023-04-16T18:13:41.036Z,22.80
2023-04-16T18:16:18.227Z,24.10
2023-04-16T18:18:47.317Z,24.30
2023-04-16T18:21:16.213Z,24.60
2023-04-16T18:23:45.260Z,21.80
2023-04-16T18:26:17.817Z,23.30
2023-04-16T18:28:49.541Z,22.20
2023-04-16T18:31:21.183Z,21.10
2023-04-16T18:33:57.360Z,21.50
2023-04-16T18:36:27.595Z,21.60
2023-04-16T18:39:02.470Z,19.70
2023-04-16T18:41:31.778Z,20.30
2023-04-16T18:44:00.735Z,21.10
2023-04-16T18:46:29.620Z,22.70
2023-04-16T18:48:59.407Z,20.20
2023-04-16T18:51:28.619Z,16.50
2023-04-16T18:53:57.647Z,21.40
2023-04-16T18:56:31.360Z,20.10
2023-04-16T18:59:00.295Z,17.90
2023-04-16T19:01:32.199Z,20.80
2023-04-16T19:04:04.035Z,18.80
2023-04-16T19:06:36.721Z,19.40
2023-04-16T19:09:11.264Z,19.50
2023-04-16T19:11:42.386Z,20.50
2023-04-16T19:14:12.191Z,19.40
2023-04-16T19:16:42.854Z,20.90
2023-04-16T19:19:13.334Z,17.00
2023-04-16T19:21:44.576Z,16.10
2023-04-16T19:24:14.926Z,17.20
2023-04-16T19:26:46.372Z,18.00
2023-04-16T19:29:15.724Z,16.00
2023-04-16T19:31:47.269Z,19.60
2023-04-16T19:34:16.964Z,16.80
2023-04-16T19:36:46.853Z,16.50
2023-04-16T19:39:15.928Z,17.50
2023-04-16T19:41:44.791Z,18.80
2023-04-16T19:44:13.837Z,15.80
2023-04-16T19:46:42.852Z,18.20
2023-04-16T19:49:12.229Z,18.60
2023-04-16T19:51:41.981Z,14.90
2023-04-16T19:54:11.038Z,16.10
2023-04-16T19:56:39.935Z,17.70
2023-04-16T19:59:09.143Z,17.50
2023-04-16T20:01:38.447Z,18.10
2023-04-16T20:04:07.503Z,17.80
2023-04-16T20:06:37.055Z,18.30
2023-04-16T20:09:05.930Z,16.70
2023-04-16T20:11:35.738Z,18.50
2023-04-16T20:14:04.735Z,18.50
2023-04-16T20:16:35.366Z,15.90
2023-04-16T20:19:09.215Z,17.30
2023-04-16T20:21:40.683Z,16.60
2023-04-16T20:24:10.948Z,15.90
2023-04-16T20:26:40.255Z,16.60
2023-04-16T20:29:10.431Z,14.60
2023-04-16T20:31:41.735Z,18.00
2023-04-16T20:34:10.506Z,18.10
2023-04-16T20:36:39.334Z,16.80
2023-04-16T20:39:08.559Z,17.40
2023-04-16T20:41:40.280Z,15.50
2023-04-16T20:44:10.682Z,14.90
2023-04-16T20:46:39.902Z,16.20
2023-04-16T20:49:09.039Z,15.50
2023-04-16T20:51:38.612Z,17.00
2023-04-16T20:54:08.917Z,15.70
2023-04-16T20:56:37.703Z,14.80
2023-04-16T20:59:07.025Z,14.40
2023-04-16T21:01:36.214Z,13.70
2023-04-16T21:04:05.635Z,17.80
2023-04-16T21:06:38.793Z,16.80
2023-04-16T21:09:07.791Z,15.60
2023-04-16T21:11:36.991Z,15.80
2023-04-16T21:14:07.114Z,13.10
2023-04-16T21:16:35.952Z,12.90
2023-04-16T21:19:05.230Z,15.00
2023-04-16T21:21:34.497Z,17.50
2023-04-16T21:24:03.307Z,17.00
2023-04-16T21:26:32.181Z,14.80
2023-04-16T21:29:01.074Z,13.10
2023-04-16T21:31:30.229Z,18.80
2023-04-16T21:33:59.165Z,14.30
2023-04-16T21:36:29.495Z,16.80
2023-04-16T21:38:58.386Z,16.20
2023-04-16T21:41:27.283Z,14.50
2023-04-16T21:43:56.293Z,15.10
2023-04-16T21:46:26.654Z,16.70
2023-04-16T21:48:55.493Z,13.20
2023-04-16T21:51:29.589Z,14.00
2023-04-16T21:53:59.104Z,14.20
2023-04-16T21:56:27.909Z,15.80
2023-04-16T21:58:56.888Z,17.20
2023-04-16T22:01:25.894Z,14.60
2023-04-16T22:03:55.169Z,14.90
2023-04-16T22:06:24.287Z,15.00
2023-04-16T22:08:53.784Z,13.30
2023-04-16T22:11:22.877Z,16.30
2023-04-16T22:13:52.180Z,14.30
2023-04-16T22:16:21.018Z,12.90
2023-04-16T22:18:50.289Z,16.80
2023-04-16T22:21:19.381Z,13.50
2023-04-16T22:23:48.261Z,11.90
2023-04-16T22:26:17.253Z,13.80
2023-04-16T22:28:46.965Z,13.60
2023-04-16T22:31:15.855Z,15.30
2023-04-16T22:33:44.784Z,14.80
2023-04-16T22:36:13.749Z,13.60
2023-04-16T22:38:42.631Z,13.60
2023-04-16T22:41:11.565Z,12.90
2023-04-16T22:43:40.793Z,13.10
2023-04-16T22:46:09.971Z,14.10
2023-04-16T22:48:39.338Z,14.80
2023-04-16T22:51:09.426Z,15.30
2023-04-16T22:53:38.558Z,14.40
2023-04-16T22:56:07.839Z,13.80
2023-04-16T22:58:37.066Z,13.70
2023-04-16T23:01:05.986Z,13.90
2023-04-16T23:03:35.095Z,12.80
2023-04-16T23:06:04.430Z,11.60
2023-04-16T23:08:33.225Z,12.40
2023-04-16T23:11:02.138Z,13.20
2023-04-16T23:13:31.929Z,12.20
2023-04-16T23:16:00.777Z,12.80
2023-04-16T23:18:29.720Z,16.30
2023-04-16T23:20:58.716Z,15.80
2023-04-16T23:23:27.592Z,14.00
2023-04-16T23:25:56.494Z,11.60
2023-04-16T23:28:25.382Z,11.80
2023-04-16T23:30:54.416Z,12.40
2023-04-16T23:33:23.264Z,13.70
2023-04-16T23:35:52.262Z,16.50
2023-04-16T23:38:21.152Z,12.60
2023-04-16T23:40:50.178Z,12.50
2023-04-16T23:43:19.135Z,14.70
2023-04-16T23:45:48.191Z,12.50
2023-04-16T23:48:17.589Z,14.00
2023-04-16T23:50:46.329Z,13.90
2023-04-16T23:53:15.359Z,11.50
2023-04-16T23:55:44.077Z,11.40
2023-04-16T23:58:13.112Z,11.00
